Tropical Cyclones
[Index]
Main Index Home Page Stock Weather Photos Extreme Storms Discussion Storm News and Storm Chasing Reports Tropical Cyclones / Hurricanes / Typhoons Weather Data and Links Wild Fires / Bushfires Weather Observation Techniques Weather Picture Catalogue Tornado Pictures and Reports Stock Video Footage and DVDs for sale
Season 2000-2001 Tropical Cyclone SAM Track Map
Season 2000-2001 Summaries: [BoM-AU] [JTWC-AU] [JTWC-SIO] [JTWC-SPAC] [JTWC-SH]
<<- Previous TC | JTWC 2000-2001 Season | Next TC ->>

click for intensity scale information  Lat/long Grid: Show Hide

 Date Labels: Show Hide

Joint Typhoon Warning Centre Cyclone Data

Name: SAM

03 Dec 2000 00:00 UTC to 10 Dec 2000 18:00 UTC

    date/time    lat    long     hPa   cat  kts
2000-12-03 00   11.2   127.8                  25          
2000-12-03 06   12.2   128.2                  25          
2000-12-03 12   12.8   128.2                  25          
2000-12-03 18   13.6   128.1                  30          
2000-12-04 00   14.3   127.6                  30          
2000-12-04 06   14.5   126.6                  30          
2000-12-04 12   14.6   125.7                  30          
2000-12-04 18   14.6   125.1                  30          
2000-12-05 00   14.5   124.4                  30          
2000-12-05 06   14.5   123.7                  30          
2000-12-05 12   14.5   123.2                  35          
2000-12-05 18   14.6   122.7                  35          
2000-12-06 00   14.8   122.3            1     45          
2000-12-06 06   15.0   121.9            1     45          
2000-12-06 12   15.4   121.7            1     50          
2000-12-06 18   16.1   121.6            2     55          
2000-12-07 00   16.7   121.5            2     65          
2000-12-07 06   17.2   121.3            3     75          
2000-12-07 12   17.6   121.1            3     85          
2000-12-07 18   17.8   121.0            4    110          
2000-12-08 00   18.1   121.0            4    110          
2000-12-08 06   18.4   121.2            4    110          
2000-12-08 12   18.8   121.5            4    105          
2000-12-08 18   19.2   121.8            3     95          
2000-12-09 00   19.7   122.2            3     80          
2000-12-09 06   20.3   122.7            2     70          
2000-12-09 12   20.7   123.1            2     55          
2000-12-09 18   21.0   123.7            1     50          
2000-12-10 00   21.2   124.3            1     45          
2000-12-10 06   21.3   124.9            1     40          
2000-12-10 12   21.4   125.3                  30          
2000-12-10 18   21.3   125.8                  25          
Winds are 1-min average.

Tropical cyclone tracks developed by Michael Bath using data from the Joint Typhoon Warning Centre Best Tracks and Google Maps.


[Australian Severe Weather index] [Copyright Notice] [Email Contacts] [Search This Site] [Privacy Policy]
Document: tropical_cyclone_sam.htm Updated: 28 June 2017